createdAt,value
2023-01-07T00:01:44.538Z,82.94
2023-01-07T00:04:16.436Z,83.37
2023-01-07T00:06:47.250Z,82.79
2023-01-07T00:09:17.445Z,83.17
2023-01-07T00:11:46.522Z,83.71
2023-01-07T00:14:16.278Z,84.04
2023-01-07T00:16:44.858Z,83.97
2023-01-07T00:19:17.322Z,84.03
2023-01-07T00:21:45.519Z,83.96
2023-01-07T00:24:14.025Z,83.77
2023-01-07T00:26:42.489Z,84.16
2023-01-07T00:29:11.051Z,83.93
2023-01-07T00:31:42.344Z,83.74
2023-01-07T00:34:11.333Z,83.75
2023-01-07T00:36:43.904Z,83.06
2023-01-07T00:39:16.526Z,82.18
2023-01-07T00:42:07.447Z,81.61
2023-01-07T00:44:37.626Z,81.88
2023-01-07T00:47:06.428Z,82.60
2023-01-07T00:49:34.592Z,82.62
2023-01-07T00:52:04.152Z,81.57
2023-01-07T00:54:32.434Z,82.25
2023-01-07T00:57:00.570Z,83.48
2023-01-07T00:59:28.685Z,84.00
2023-01-07T01:01:56.988Z,84.44
2023-01-07T01:04:25.154Z,85.12
2023-01-07T01:06:53.300Z,85.61
2023-01-07T01:09:25.290Z,86.01
2023-01-07T01:11:53.407Z,86.13
2023-01-07T01:14:21.541Z,85.83
2023-01-07T01:16:49.742Z,85.76
2023-01-07T01:19:18.242Z,85.73
2023-01-07T01:21:46.393Z,86.56
2023-01-07T01:24:14.644Z,86.04
2023-01-07T01:26:44.144Z,86.43
2023-01-07T01:29:12.227Z,86.82
2023-01-07T01:31:40.474Z,87.19
2023-01-07T01:34:08.646Z,87.42
2023-01-07T01:36:37.070Z,87.92
2023-01-07T01:39:05.401Z,88.16
2023-01-07T01:41:33.596Z,88.61
2023-01-07T01:44:03.579Z,88.98
2023-01-07T01:46:39.686Z,88.89
2023-01-07T01:49:22.071Z,89.13
2023-01-07T01:51:57.241Z,89.45
2023-01-07T01:54:28.398Z,89.66
2023-01-07T01:57:01.940Z,89.71
2023-01-07T01:59:37.493Z,89.53
2023-01-07T02:02:07.467Z,89.87
2023-01-07T02:04:38.043Z,89.99
2023-01-07T02:07:10.561Z,90.36
2023-01-07T02:09:38.843Z,90.80
2023-01-07T02:12:19.446Z,90.91
2023-01-07T02:15:10.299Z,91.29
2023-01-07T02:17:56.592Z,91.45
2023-01-07T02:20:41.538Z,91.47
2023-01-07T02:24:24.177Z,91.96
2023-01-07T02:27:18.395Z,92.01
2023-01-07T02:30:36.925Z,92.29
2023-01-07T02:33:33.854Z,92.37
2023-01-07T02:36:41.714Z,92.33
2023-01-07T02:39:31.511Z,91.53
2023-01-07T02:42:03.451Z,89.85
2023-01-07T02:44:42.748Z,88.26
2023-01-07T02:47:19.258Z,87.75
2023-01-07T02:49:50.843Z,88.24
2023-01-07T02:52:24.449Z,88.60
2023-01-07T02:55:00.908Z,88.04
2023-01-07T02:58:15.205Z,87.76
2023-01-07T03:01:38.915Z,86.99
2023-01-07T03:04:33.659Z,85.96
2023-01-07T03:07:31.159Z,85.79
2023-01-07T03:10:11.497Z,85.63
2023-01-07T03:12:47.350Z,85.48
2023-01-07T03:15:24.121Z,85.23
2023-01-07T03:18:01.307Z,85.04
2023-01-07T03:20:33.127Z,84.68
2023-01-07T03:23:09.752Z,84.16
2023-01-07T03:25:45.890Z,83.27
2023-01-07T03:28:18.794Z,83.06
2023-01-07T03:30:50.200Z,82.88
2023-01-07T03:33:27.579Z,82.39
2023-01-07T03:36:00.974Z,82.03
2023-01-07T03:38:31.787Z,81.57
2023-01-07T03:41:00.237Z,82.19
2023-01-07T03:43:27.415Z,82.26
2023-01-07T03:45:58.629Z,82.61
2023-01-07T03:48:26.923Z,83.08
2023-01-07T03:50:55.054Z,82.00
2023-01-07T03:53:23.174Z,82.46
2023-01-07T03:55:52.661Z,82.96
2023-01-07T03:58:20.814Z,83.32
2023-01-07T04:00:48.918Z,82.60
2023-01-07T04:03:17.126Z,82.04
2023-01-07T04:05:45.223Z,82.89
2023-01-07T04:08:13.414Z,83.41
2023-01-07T04:10:41.699Z,83.52
2023-01-07T04:13:11.166Z,83.52
2023-01-07T04:15:39.260Z,83.70
2023-01-07T04:18:07.426Z,83.05
2023-01-07T04:20:35.811Z,82.39
2023-01-07T04:23:04.139Z,82.39
2023-01-07T04:25:32.643Z,81.38
2023-01-07T04:28:00.766Z,81.45
2023-01-07T04:30:30.308Z,80.69
2023-01-07T04:32:58.445Z,79.78
2023-01-07T04:35:26.667Z,79.28
2023-01-07T04:37:54.769Z,79.72
2023-01-07T04:40:22.926Z,79.00
2023-01-07T04:42:51.053Z,79.12
2023-01-07T04:45:19.310Z,79.98
2023-01-07T04:47:48.916Z,78.71
2023-01-07T04:50:17.527Z,78.93
2023-01-07T04:52:45.668Z,79.45
2023-01-07T04:55:13.840Z,79.66
2023-01-07T04:57:41.959Z,79.26
2023-01-07T05:00:12.194Z,79.56
2023-01-07T05:02:40.457Z,79.01
2023-01-07T05:05:11.381Z,78.50
2023-01-07T05:07:39.528Z,78.06
2023-01-07T05:10:08.963Z,78.54
2023-01-07T05:12:38.472Z,77.82
2023-01-07T05:15:08.901Z,76.73
2023-01-07T05:17:37.063Z,78.13
2023-01-07T05:20:07.698Z,78.40
2023-01-07T05:22:37.237Z,78.80
2023-01-07T05:25:06.162Z,78.90
2023-01-07T05:27:34.278Z,78.92
2023-01-07T05:30:02.588Z,78.98
2023-01-07T05:32:30.667Z,79.21
2023-01-07T05:34:58.960Z,79.10
2023-01-07T05:37:27.099Z,79.21
2023-01-07T05:39:56.608Z,78.64
2023-01-07T05:42:24.824Z,79.32
2023-01-07T05:44:52.917Z,78.37
2023-01-07T05:47:21.080Z,78.11
2023-01-07T05:49:49.187Z,78.18
2023-01-07T05:52:17.411Z,78.16
2023-01-07T05:54:45.529Z,78.34
2023-01-07T05:57:14.974Z,78.05
2023-01-07T05:59:44.160Z,77.90
2023-01-07T06:02:12.326Z,77.33
2023-01-07T06:04:40.484Z,78.05
2023-01-07T06:07:08.655Z,77.49
2023-01-07T06:09:36.780Z,78.87
2023-01-07T06:12:05.232Z,78.21
2023-01-07T06:14:34.763Z,78.39
2023-01-07T06:17:02.858Z,78.16
2023-01-07T06:19:30.995Z,78.90
2023-01-07T06:21:59.492Z,78.49
2023-01-07T06:24:27.645Z,79.35
2023-01-07T06:26:55.779Z,79.96
2023-01-07T06:29:23.850Z,79.82
2023-01-07T06:31:53.406Z,80.65
2023-01-07T06:34:21.631Z,80.83
2023-01-07T06:36:49.775Z,81.45
2023-01-07T06:39:17.897Z,81.47
2023-01-07T06:41:46.027Z,80.27
2023-01-07T06:44:14.099Z,80.25
2023-01-07T06:46:42.299Z,80.94
2023-01-07T06:49:12.159Z,81.16
2023-01-07T06:51:40.390Z,81.46
2023-01-07T06:54:08.544Z,81.34
2023-01-07T06:56:36.683Z,81.48
2023-01-07T06:59:04.793Z,81.89
2023-01-07T07:01:33.047Z,82.10
2023-01-07T07:04:01.231Z,81.98
2023-01-07T07:06:30.813Z,81.94
2023-01-07T07:08:58.939Z,82.65
2023-01-07T07:11:27.109Z,82.25
2023-01-07T07:13:55.259Z,82.17
2023-01-07T07:16:24.134Z,82.00
2023-01-07T07:18:53.014Z,82.33
2023-01-07T07:21:21.341Z,82.73
2023-01-07T07:23:50.860Z,82.87
2023-01-07T07:26:18.993Z,81.78
2023-01-07T07:28:47.154Z,81.89
2023-01-07T07:31:15.379Z,82.20
2023-01-07T07:33:43.507Z,81.47
2023-01-07T07:36:11.683Z,81.41
2023-01-07T07:38:39.786Z,81.49
2023-01-07T07:41:09.253Z,81.11
2023-01-07T07:43:37.880Z,80.81
2023-01-07T07:46:06.664Z,81.31
2023-01-07T07:48:34.905Z,81.62
2023-01-07T07:51:03.008Z,81.68
2023-01-07T07:53:31.245Z,80.77
2023-01-07T07:55:59.412Z,80.78
2023-01-07T07:58:28.884Z,78.57
2023-01-07T08:00:57.126Z,78.87
2023-01-07T08:03:25.346Z,78.74
2023-01-07T08:05:53.484Z,78.79
2023-01-07T08:08:22.331Z,79.10
2023-01-07T08:10:50.430Z,79.17
2023-01-07T08:13:19.299Z,79.61
2023-01-07T08:15:48.797Z,79.35
2023-01-07T08:18:16.980Z,79.29
2023-01-07T08:20:45.070Z,78.91
2023-01-07T08:23:13.345Z,78.45
2023-01-07T08:25:41.436Z,78.84
2023-01-07T08:28:11.271Z,79.28
2023-01-07T08:30:39.727Z,78.63
2023-01-07T08:33:09.678Z,78.31
2023-01-07T08:35:37.995Z,78.01
2023-01-07T08:38:09.030Z,77.60
2023-01-07T08:40:38.380Z,77.59
2023-01-07T08:43:09.016Z,77.08
2023-01-07T08:45:37.272Z,77.21
2023-01-07T08:48:06.452Z,77.74
2023-01-07T08:50:36.173Z,77.23
2023-01-07T08:53:04.293Z,77.01
2023-01-07T08:55:32.362Z,76.07
2023-01-07T08:58:00.566Z,75.96
2023-01-07T09:00:29.233Z,75.19
2023-01-07T09:02:57.434Z,74.61
2023-01-07T09:05:25.577Z,74.05
2023-01-07T09:07:56.772Z,73.99
2023-01-07T09:10:25.486Z,73.52
2023-01-07T09:12:53.650Z,73.68
2023-01-07T09:15:21.789Z,73.55
2023-01-07T09:17:49.971Z,73.15
2023-01-07T09:20:18.468Z,73.53
2023-01-07T09:22:46.950Z,72.74
2023-01-07T09:25:16.588Z,71.84
2023-01-07T09:27:45.685Z,70.62
2023-01-07T09:30:14.760Z,71.62
2023-01-07T09:32:44.404Z,71.80
2023-01-07T09:35:13.070Z,72.18
2023-01-07T09:37:41.614Z,71.64
2023-01-07T09:40:22.610Z,71.60
2023-01-07T09:43:00.448Z,71.91
2023-01-07T09:45:34.036Z,71.38
2023-01-07T09:48:07.975Z,71.56
2023-01-07T09:50:53.318Z,70.78
2023-01-07T09:53:28.601Z,70.29
2023-01-07T09:56:11.872Z,70.12
2023-01-07T09:58:46.155Z,69.34
2023-01-07T10:01:27.402Z,69.72
2023-01-07T10:04:16.495Z,68.57
2023-01-07T10:06:57.923Z,68.94
2023-01-07T10:09:44.354Z,68.94
2023-01-07T10:12:27.166Z,69.04
2023-01-07T10:15:36.839Z,68.17
2023-01-07T10:18:25.146Z,67.59
2023-01-07T10:21:10.645Z,67.31
2023-01-07T10:23:43.285Z,67.31
2023-01-07T10:26:29.904Z,68.48
2023-01-07T10:29:07.857Z,68.05
2023-01-07T10:31:37.911Z,68.50
2023-01-07T10:34:15.253Z,67.92
2023-01-07T10:37:00.974Z,67.33
2023-01-07T10:39:46.535Z,67.62
2023-01-07T10:42:23.825Z,67.21
2023-01-07T10:45:24.401Z,67.21
2023-01-07T10:48:21.249Z,66.84
2023-01-07T10:51:07.288Z,67.17
2023-01-07T10:53:58.898Z,68.24
2023-01-07T10:56:36.900Z,68.62
2023-01-07T10:59:06.367Z,69.41
2023-01-07T11:01:40.324Z,69.06
2023-01-07T11:04:15.262Z,68.62
2023-01-07T11:06:50.941Z,69.28
2023-01-07T11:09:24.493Z,69.93
2023-01-07T11:11:55.322Z,69.18
2023-01-07T11:14:31.122Z,67.92
2023-01-07T11:17:12.801Z,68.13
2023-01-07T11:19:49.013Z,67.63
2023-01-07T11:22:36.841Z,67.63
2023-01-07T11:25:28.745Z,67.45
2023-01-07T11:28:03.044Z,67.19
2023-01-07T11:30:34.507Z,66.98
2023-01-07T11:33:07.929Z,66.00
2023-01-07T11:35:37.538Z,64.74
2023-01-07T11:38:30.443Z,64.85
2023-01-07T11:41:00.808Z,65.35
2023-01-07T11:43:34.833Z,66.28
2023-01-07T11:46:19.498Z,64.87
2023-01-07T11:48:54.559Z,65.32
2023-01-07T11:51:24.596Z,65.05
2023-01-07T11:53:57.813Z,64.43
2023-01-07T11:56:29.648Z,64.20
2023-01-07T11:59:29.748Z,63.96
2023-01-07T12:02:00.571Z,62.52
2023-01-07T12:04:33.652Z,61.78
2023-01-07T12:07:05.820Z,61.98
2023-01-07T12:09:38.690Z,61.53
2023-01-07T12:12:34.600Z,61.61
2023-01-07T12:15:07.813Z,61.95
2023-01-07T12:17:37.205Z,61.31
2023-01-07T12:21:01.994Z,60.88
2023-01-07T12:23:43.796Z,61.39
2023-01-07T12:26:19.336Z,60.91
2023-01-07T12:29:07.323Z,61.94
2023-01-07T12:31:48.962Z,61.37
2023-01-07T12:34:38.305Z,61.42
2023-01-07T12:37:20.503Z,61.31
2023-01-07T12:39:55.930Z,60.90
2023-01-07T12:42:30.151Z,61.33
2023-01-07T12:45:06.317Z,61.84
2023-01-07T12:47:40.588Z,62.25
2023-01-07T12:50:17.553Z,61.61
2023-01-07T12:52:53.125Z,61.46
2023-01-07T12:55:27.651Z,61.45
2023-01-07T12:58:14.900Z,61.98
2023-01-07T13:00:53.611Z,62.39
2023-01-07T13:03:44.277Z,62.30
2023-01-07T13:06:19.885Z,62.60
2023-01-07T13:09:03.137Z,61.85
2023-01-07T13:11:54.889Z,62.15
2023-01-07T13:14:29.448Z,61.74
2023-01-07T13:17:06.196Z,62.73
2023-01-07T13:19:34.304Z,62.70
2023-01-07T13:22:02.642Z,63.08
2023-01-07T13:24:56.416Z,63.67
2023-01-07T13:27:39.912Z,64.10
2023-01-07T13:30:25.487Z,63.31
2023-01-07T13:33:13.493Z,62.53
2023-01-07T13:36:01.936Z,63.20
2023-01-07T13:39:11.855Z,63.24
2023-01-07T13:42:02.758Z,64.27
2023-01-07T13:45:01.684Z,64.52
2023-01-07T13:47:43.691Z,64.34
2023-01-07T13:50:26.106Z,64.52
2023-01-07T13:53:01.913Z,64.29
2023-01-07T13:55:38.940Z,63.99
2023-01-07T13:58:45.716Z,64.53
2023-01-07T14:01:15.984Z,64.49
2023-01-07T14:03:49.590Z,64.22
2023-01-07T14:06:40.566Z,64.83
2023-01-07T14:09:38.762Z,64.32
2023-01-07T14:13:12.976Z,64.28
2023-01-07T14:16:07.755Z,65.43
2023-01-07T14:19:08.168Z,65.03
2023-01-07T14:22:00.540Z,65.28
2023-01-07T14:25:06.376Z,66.00
2023-01-07T14:28:09.902Z,66.14
2023-01-07T14:30:46.448Z,65.94
2023-01-07T14:33:22.856Z,66.27
2023-01-07T14:35:59.320Z,66.84
2023-01-07T14:39:01.779Z,67.03
2023-01-07T14:41:30.010Z,66.96
2023-01-07T14:44:21.463Z,67.05
2023-01-07T14:46:52.565Z,67.17
2023-01-07T14:50:01.894Z,67.02
2023-01-07T14:53:43.015Z,67.20
2023-01-07T14:56:33.550Z,67.31
2023-01-07T14:59:30.582Z,67.60
2023-01-07T15:03:19.354Z,67.37
2023-01-07T15:06:09.946Z,67.47
2023-01-07T15:09:06.496Z,67.43
2023-01-07T15:11:54.257Z,67.19
2023-01-07T15:14:47.464Z,66.38
2023-01-07T15:17:17.702Z,66.33
2023-01-07T15:19:46.358Z,64.94
2023-01-07T15:22:54.673Z,65.49
2023-01-07T15:25:42.972Z,64.74
2023-01-07T15:28:20.760Z,64.64
2023-01-07T15:31:00.110Z,63.52
2023-01-07T15:33:53.704Z,63.35
2023-01-07T15:36:22.232Z,63.71
2023-01-07T15:38:54.218Z,62.96
2023-01-07T15:41:33.317Z,62.88
2023-01-07T15:44:05.337Z,63.45
2023-01-07T15:46:34.769Z,62.33
2023-01-07T15:49:18.826Z,62.56
2023-01-07T15:51:49.503Z,62.17
2023-01-07T15:54:37.060Z,62.41
2023-01-07T15:57:11.244Z,62.64
2023-01-07T15:59:45.616Z,63.33
2023-01-07T16:02:27.486Z,63.29
2023-01-07T16:05:00.838Z,62.79
2023-01-07T16:07:32.866Z,62.13
2023-01-07T16:10:02.793Z,63.36
2023-01-07T16:12:36.264Z,62.56
2023-01-07T16:15:29.990Z,62.46
2023-01-07T16:18:00.729Z,62.74
2023-01-07T16:20:33.066Z,63.03
2023-01-07T16:23:22.353Z,62.47
2023-01-07T16:25:57.891Z,62.03
2023-01-07T16:28:29.950Z,62.95
2023-01-07T16:31:00.030Z,63.10
2023-01-07T16:33:32.567Z,63.07
2023-01-07T16:36:03.349Z,63.29
2023-01-07T16:38:36.450Z,63.61
2023-01-07T16:41:06.524Z,63.31
2023-01-07T16:43:45.110Z,63.82
2023-01-07T16:46:31.756Z,64.05
2023-01-07T16:49:29.398Z,64.67
2023-01-07T16:52:07.808Z,64.81
2023-01-07T16:54:39.974Z,64.34
2023-01-07T16:57:38.805Z,64.83
2023-01-07T17:00:20.129Z,64.55
2023-01-07T17:02:56.075Z,64.33
2023-01-07T17:05:27.252Z,63.82
2023-01-07T17:08:00.312Z,64.32
2023-01-07T17:10:33.258Z,63.90
2023-01-07T17:13:05.425Z,64.46
2023-01-07T17:15:40.017Z,63.93
2023-01-07T17:18:30.379Z,63.68
2023-01-07T17:21:01.246Z,63.40
2023-01-07T17:23:45.511Z,62.72
2023-01-07T17:26:23.001Z,62.77
2023-01-07T17:28:55.885Z,62.88
2023-01-07T17:31:25.327Z,62.32
2023-01-07T17:33:54.890Z,62.21
2023-01-07T17:36:25.943Z,62.65
2023-01-07T17:38:54.715Z,62.30
2023-01-07T17:41:42.285Z,62.70
2023-01-07T17:44:14.475Z,62.34
2023-01-07T17:46:43.566Z,62.50
2023-01-07T17:49:12.721Z,63.33
2023-01-07T17:51:44.128Z,63.03
2023-01-07T17:54:22.675Z,63.71
2023-01-07T17:56:52.033Z,64.06
2023-01-07T17:59:24.069Z,63.29
2023-01-07T18:01:56.560Z,63.77
2023-01-07T18:04:25.130Z,64.13
2023-01-07T18:06:53.273Z,62.70
2023-01-07T18:09:21.416Z,63.14
2023-01-07T18:12:06.893Z,63.47
2023-01-07T18:14:36.337Z,62.51
2023-01-07T18:17:04.776Z,63.36
2023-01-07T18:19:32.825Z,62.72
2023-01-07T18:22:00.881Z,63.12
2023-01-07T18:24:29.005Z,62.96
2023-01-07T18:26:57.071Z,64.08
2023-01-07T18:29:25.301Z,63.59
2023-01-07T18:31:54.915Z,63.99
2023-01-07T18:34:23.029Z,64.61
2023-01-07T18:36:51.086Z,64.74
2023-01-07T18:39:20.570Z,64.41
2023-01-07T18:41:50.076Z,64.48
2023-01-07T18:44:19.171Z,64.74
2023-01-07T18:46:47.303Z,64.86
2023-01-07T18:49:17.073Z,64.69
2023-01-07T18:51:47.852Z,65.09
2023-01-07T18:54:17.048Z,64.97
2023-01-07T18:56:46.160Z,64.87
2023-01-07T18:59:14.605Z,64.89
2023-01-07T19:01:43.081Z,64.95
2023-01-07T19:04:11.330Z,64.85
2023-01-07T19:06:40.780Z,64.89
2023-01-07T19:09:08.834Z,65.32
2023-01-07T19:11:38.209Z,64.58
2023-01-07T19:14:06.317Z,64.29
2023-01-07T19:16:34.504Z,64.43
2023-01-07T19:19:02.876Z,65.29
2023-01-07T19:21:31.061Z,65.86
2023-01-07T19:24:03.618Z,66.08
2023-01-07T19:26:33.653Z,65.17
2023-01-07T19:29:01.840Z,66.36
2023-01-07T19:31:29.930Z,66.61
2023-01-07T19:33:58.033Z,66.16
2023-01-07T19:36:26.118Z,65.39
2023-01-07T19:38:54.188Z,66.42
2023-01-07T19:41:24.625Z,66.60
2023-01-07T19:43:59.043Z,67.82
2023-01-07T19:46:28.703Z,67.23
2023-01-07T19:48:56.803Z,66.93
2023-01-07T19:51:24.895Z,67.33
2023-01-07T19:53:52.975Z,67.38
2023-01-07T19:56:21.050Z,67.57
2023-01-07T19:58:54.036Z,67.60
2023-01-07T20:01:26.381Z,67.61
2023-01-07T20:03:56.291Z,68.17
2023-01-07T20:06:27.488Z,67.29
2023-01-07T20:08:57.500Z,67.51
2023-01-07T20:11:26.941Z,68.61
2023-01-07T20:13:56.370Z,68.26
2023-01-07T20:16:25.516Z,68.80
2023-01-07T20:18:56.450Z,69.00
2023-01-07T20:21:27.487Z,69.56
2023-01-07T20:23:56.437Z,68.57
2023-01-07T20:26:27.148Z,69.25
2023-01-07T20:28:58.200Z,69.44
2023-01-07T20:31:28.450Z,69.35
2023-01-07T20:33:57.393Z,69.38
2023-01-07T20:36:28.509Z,70.04
2023-01-07T20:38:57.100Z,70.01
2023-01-07T20:41:28.534Z,69.99
2023-01-07T20:44:00.379Z,69.64
2023-01-07T20:46:31.147Z,69.60
2023-01-07T20:48:59.559Z,69.85
2023-01-07T20:51:28.738Z,70.06
2023-01-07T20:53:57.171Z,70.80
2023-01-07T20:56:31.678Z,70.62
2023-01-07T20:59:02.853Z,70.90
2023-01-07T21:01:31.256Z,71.92
2023-01-07T21:04:01.738Z,71.25
2023-01-07T21:06:29.953Z,70.62
2023-01-07T21:08:58.258Z,71.48
2023-01-07T21:11:27.171Z,71.61
2023-01-07T21:13:56.310Z,71.88
2023-01-07T21:16:27.398Z,71.71
2023-01-07T21:18:55.718Z,71.73
2023-01-07T21:21:25.587Z,72.57
2023-01-07T21:23:54.682Z,72.38
2023-01-07T21:26:24.772Z,71.65
2023-01-07T21:28:56.431Z,71.17
2023-01-07T21:31:27.235Z,71.67
2023-01-07T21:33:57.446Z,72.17
2023-01-07T21:36:27.562Z,72.67
2023-01-07T21:38:57.692Z,72.53
2023-01-07T21:41:27.981Z,72.64
2023-01-07T21:43:56.641Z,73.50
2023-01-07T21:46:26.339Z,74.07
2023-01-07T21:48:54.430Z,73.73
2023-01-07T21:51:25.916Z,73.36
2023-01-07T21:53:56.543Z,73.83
2023-01-07T21:56:27.266Z,72.60
2023-01-07T21:58:55.425Z,72.71
2023-01-07T22:01:28.517Z,72.36
2023-01-07T22:03:59.823Z,72.75
2023-01-07T22:06:31.046Z,72.10
2023-01-07T22:09:01.042Z,72.00
2023-01-07T22:11:29.591Z,72.18
2023-01-07T22:13:59.818Z,71.62
2023-01-07T22:16:31.725Z,72.44
2023-01-07T22:19:01.102Z,73.15
2023-01-07T22:21:29.755Z,72.75
2023-01-07T22:23:57.849Z,73.12
2023-01-07T22:26:25.907Z,73.11
2023-01-07T22:28:58.834Z,72.33
2023-01-07T22:31:31.269Z,73.24
2023-01-07T22:34:00.133Z,73.15
2023-01-07T22:36:37.662Z,74.31
2023-01-07T22:39:10.793Z,74.25
2023-01-07T22:41:39.625Z,72.79
2023-01-07T22:44:14.022Z,73.04
2023-01-07T22:46:48.979Z,73.25
2023-01-07T22:49:17.989Z,73.43
2023-01-07T22:51:50.017Z,73.09
2023-01-07T22:54:19.509Z,72.98
2023-01-07T22:56:48.334Z,73.18
2023-01-07T22:59:16.662Z,73.00
2023-01-07T23:01:46.043Z,72.71
2023-01-07T23:04:14.205Z,72.27
2023-01-07T23:06:42.309Z,72.75
2023-01-07T23:09:10.339Z,73.09
2023-01-07T23:11:50.823Z,72.70
2023-01-07T23:14:21.756Z,72.45
2023-01-07T23:16:53.053Z,72.00
2023-01-07T23:19:23.251Z,72.03
2023-01-07T23:21:54.554Z,72.26
2023-01-07T23:24:24.276Z,72.56
2023-01-07T23:26:54.929Z,72.85
2023-01-07T23:29:23.546Z,72.52
2023-01-07T23:31:53.386Z,72.44
2023-01-07T23:34:21.927Z,72.29
2023-01-07T23:36:50.081Z,71.92
2023-01-07T23:39:18.183Z,71.83
2023-01-07T23:41:46.320Z,72.12
2023-01-07T23:44:14.627Z,72.62
2023-01-07T23:46:42.785Z,72.71
2023-01-07T23:49:12.248Z,73.48
2023-01-07T23:51:42.095Z,74.36
2023-01-07T23:54:10.827Z,74.52
2023-01-07T23:56:39.080Z,73.97
2023-01-07T23:59:07.498Z,74.03
